Weather at Khrabrovo Airport

Public forecast

Using degrees Celsius for public forecast. Weather courtesy of forecast.io.

Current aviation weather report (METAR) for Khrabrovo Airport

Retrieved 2021/04/12 12:30 UTC (28 minutes ago):

UMKK 121230Z 30009MPS 9999 BKN010 07/04 Q1018 R24/CLRD95 NOSIG RMK QFE762/1016

Aviation forecast (TAF) for Khrabrovo Airport

Retrieved 2021/04/12 12:21 UTC (37 minutes ago):

TAF UMKK 121056Z 1212/1312 30007G13MPS 6000 -RA SCT010 BKN016 TEMPO 1212/1223 3100 -SHRA BR BKN006 BKN013CB BECMG 1219/1221 27003G08MPS BECMG 1223/1301 9999 FEW007 BKN020 BECMG 1304/1306 30006G11MPS SCT030